createdAt,value
2023-03-19T00:00:44.449Z,8.50
2023-03-19T00:03:11.380Z,8.42
2023-03-19T00:05:38.577Z,8.29
2023-03-19T00:08:06.192Z,8.32
2023-03-19T00:10:33.053Z,8.38
2023-03-19T00:12:59.957Z,8.27
2023-03-19T00:15:26.667Z,8.23
2023-03-19T00:17:54.333Z,7.97
2023-03-19T00:20:22.295Z,8.02
2023-03-19T00:22:49.221Z,7.95
2023-03-19T00:25:16.025Z,7.94
2023-03-19T00:27:44.541Z,8.09
2023-03-19T00:30:11.798Z,7.68
2023-03-19T00:32:39.515Z,8.03
2023-03-19T00:35:08.313Z,8.10
2023-03-19T00:37:35.827Z,8.18
2023-03-19T00:40:03.810Z,8.14
2023-03-19T00:42:31.524Z,8.00
2023-03-19T00:44:58.492Z,8.10
2023-03-19T00:47:25.931Z,7.91
2023-03-19T00:49:52.678Z,7.80
2023-03-19T00:52:19.716Z,7.44
2023-03-19T00:54:46.472Z,7.65
2023-03-19T00:57:13.355Z,6.73
2023-03-19T00:59:40.314Z,6.89
2023-03-19T01:02:07.282Z,6.79
2023-03-19T01:04:34.034Z,7.16
2023-03-19T01:09:28.008Z,7.58
2023-03-19T01:11:54.848Z,7.65
2023-03-19T01:14:21.960Z,7.64
2023-03-19T01:16:48.761Z,7.55
2023-03-19T01:19:16.473Z,7.69
2023-03-19T01:21:46.443Z,7.50
2023-03-19T01:24:16.848Z,7.49
2023-03-19T01:26:44.952Z,7.60
2023-03-19T01:29:28.072Z,7.81
2023-03-19T01:31:57.339Z,7.57
2023-03-19T01:34:39.357Z,7.57
2023-03-19T01:37:11.165Z,7.66
2023-03-19T01:39:39.461Z,7.57
2023-03-19T01:42:10.510Z,7.53
2023-03-19T01:44:45.999Z,7.58
2023-03-19T01:47:36.089Z,7.51
2023-03-19T01:50:40.986Z,7.19
2023-03-19T01:53:31.950Z,7.48
2023-03-19T01:56:32.693Z,7.26
2023-03-19T01:59:21.366Z,7.13
2023-03-19T02:02:16.518Z,6.94
2023-03-19T02:04:47.660Z,7.19
2023-03-19T02:07:15.721Z,7.27
2023-03-19T02:09:43.076Z,7.30
2023-03-19T02:12:10.271Z,7.36
2023-03-19T02:14:37.123Z,7.35
2023-03-19T02:17:05.658Z,7.48
2023-03-19T02:19:48.344Z,7.22
2023-03-19T02:22:19.442Z,7.27
2023-03-19T02:25:20.384Z,7.40
2023-03-19T02:27:47.951Z,7.25
2023-03-19T02:30:27.275Z,7.25
2023-03-19T02:32:55.117Z,7.12
2023-03-19T02:35:22.398Z,7.33
2023-03-19T02:37:49.172Z,7.22
2023-03-19T02:40:43.952Z,7.19
2023-03-19T02:43:10.910Z,7.12
2023-03-19T02:45:37.581Z,7.14
2023-03-19T02:48:04.670Z,7.20
2023-03-19T02:50:31.512Z,7.18
2023-03-19T02:52:58.870Z,7.00
2023-03-19T02:55:25.726Z,6.93
2023-03-19T02:57:52.687Z,6.85
2023-03-19T03:00:20.842Z,6.82
2023-03-19T03:02:47.748Z,6.78
2023-03-19T03:05:14.665Z,6.70
2023-03-19T03:07:43.877Z,6.55
2023-03-19T03:10:11.859Z,6.70
2023-03-19T03:12:38.948Z,6.87
2023-03-19T03:15:08.456Z,6.67
2023-03-19T03:17:39.522Z,6.71
2023-03-19T03:20:07.517Z,6.68
2023-03-19T03:22:34.319Z,6.79
2023-03-19T03:25:01.384Z,6.73
2023-03-19T03:27:30.254Z,6.87
2023-03-19T03:29:57.444Z,6.84
2023-03-19T03:32:24.615Z,6.77
2023-03-19T03:34:51.413Z,6.68
2023-03-19T03:37:19.476Z,6.70
2023-03-19T03:39:46.550Z,6.47
2023-03-19T03:42:13.289Z,6.60
2023-03-19T03:44:41.623Z,6.59
2023-03-19T03:47:09.113Z,6.83
2023-03-19T03:49:36.217Z,6.48
2023-03-19T03:52:03.167Z,6.55
2023-03-19T03:54:32.554Z,6.66
2023-03-19T03:57:02.047Z,6.70
2023-03-19T03:59:30.282Z,6.66
2023-03-19T04:01:56.942Z,6.47
2023-03-19T04:04:23.867Z,6.56
2023-03-19T04:06:50.506Z,6.60
2023-03-19T04:09:34.783Z,6.55
2023-03-19T04:12:02.312Z,6.56
2023-03-19T04:14:28.984Z,6.52
2023-03-19T04:16:56.617Z,6.32
2023-03-19T04:19:23.365Z,6.27
2023-03-19T04:21:50.134Z,6.29
2023-03-19T04:24:17.142Z,6.30
2023-03-19T04:26:44.144Z,6.33
2023-03-19T04:29:10.949Z,6.34
2023-03-19T04:31:38.287Z,6.41
2023-03-19T04:34:05.898Z,6.44
2023-03-19T04:36:33.236Z,6.45
2023-03-19T04:39:00.334Z,6.27
2023-03-19T04:41:27.198Z,6.18
2023-03-19T04:44:23.694Z,6.22
2023-03-19T04:46:50.361Z,6.36
2023-03-19T04:49:19.478Z,6.18
2023-03-19T04:51:46.850Z,6.14
2023-03-19T04:54:13.860Z,6.20
2023-03-19T04:56:40.595Z,6.34
2023-03-19T04:59:07.662Z,6.15
2023-03-19T05:01:34.401Z,6.21
2023-03-19T05:04:05.471Z,6.36
2023-03-19T05:06:34.628Z,6.41
2023-03-19T05:09:01.517Z,6.23
2023-03-19T05:11:28.480Z,6.32
2023-03-19T05:14:05.012Z,6.36
2023-03-19T05:16:43.600Z,6.40
2023-03-19T05:19:10.470Z,6.56
2023-03-19T05:21:37.831Z,6.67
2023-03-19T05:24:05.377Z,6.62
2023-03-19T05:26:35.931Z,6.69
2023-03-19T05:29:10.887Z,6.77
2023-03-19T05:31:59.804Z,6.87
2023-03-19T05:34:27.181Z,6.87
2023-03-19T05:36:54.246Z,6.94
2023-03-19T05:39:21.332Z,7.02
2023-03-19T05:41:50.985Z,6.84
2023-03-19T05:44:21.552Z,7.07
2023-03-19T05:47:01.623Z,6.97
2023-03-19T05:49:32.445Z,7.14
2023-03-19T05:51:59.374Z,7.25
2023-03-19T05:54:27.051Z,7.18
2023-03-19T05:57:01.543Z,7.31
2023-03-19T05:59:49.060Z,7.43
2023-03-19T06:02:27.731Z,7.27
2023-03-19T06:05:09.603Z,7.51
2023-03-19T06:07:37.143Z,7.42
2023-03-19T06:10:08.335Z,7.50
2023-03-19T06:12:36.251Z,7.48
2023-03-19T06:15:21.173Z,7.57
2023-03-19T06:18:08.649Z,7.62
2023-03-19T06:20:36.261Z,7.88
2023-03-19T06:23:03.300Z,7.97
2023-03-19T06:25:30.241Z,7.97
2023-03-19T06:27:56.934Z,8.17
2023-03-19T06:30:27.892Z,8.12
2023-03-19T06:32:57.667Z,8.25
2023-03-19T06:35:24.903Z,8.31
2023-03-19T06:37:53.076Z,8.42
2023-03-19T06:40:20.865Z,8.50
2023-03-19T06:42:48.696Z,8.22
2023-03-19T06:45:18.907Z,8.17
2023-03-19T06:47:47.658Z,8.30
2023-03-19T06:50:16.497Z,8.51
2023-03-19T06:52:44.333Z,8.83
2023-03-19T06:55:15.684Z,8.78
2023-03-19T06:57:42.527Z,8.91
2023-03-19T07:00:11.722Z,9.03
2023-03-19T07:02:38.566Z,9.05
2023-03-19T07:05:06.024Z,9.10
2023-03-19T07:07:32.895Z,9.19
2023-03-19T07:09:59.685Z,9.37
2023-03-19T07:12:27.961Z,9.47
2023-03-19T07:14:56.402Z,9.59
2023-03-19T07:17:24.465Z,9.47
2023-03-19T07:19:51.622Z,9.53
2023-03-19T07:22:18.761Z,9.66
2023-03-19T07:24:45.616Z,9.85
2023-03-19T07:27:12.482Z,10.03
2023-03-19T07:29:39.247Z,9.90
2023-03-19T07:32:06.423Z,9.91
2023-03-19T07:34:33.074Z,10.20
2023-03-19T07:36:59.817Z,10.09
2023-03-19T07:39:26.718Z,9.79
2023-03-19T07:41:53.622Z,10.10
2023-03-19T07:44:23.553Z,10.29
2023-03-19T07:46:50.579Z,10.59
2023-03-19T07:49:17.422Z,10.50
2023-03-19T07:51:44.434Z,10.56
2023-03-19T07:54:11.364Z,10.67
2023-03-19T07:56:38.362Z,10.90
2023-03-19T07:59:05.934Z,10.89
2023-03-19T08:01:33.204Z,11.08
2023-03-19T08:03:59.924Z,11.13
2023-03-19T08:06:27.996Z,11.20
2023-03-19T08:08:54.837Z,11.27
2023-03-19T08:11:22.920Z,10.98
2023-03-19T08:13:49.854Z,11.39
2023-03-19T08:16:16.842Z,11.45
2023-03-19T08:18:43.718Z,11.72
2023-03-19T08:21:10.457Z,11.81
2023-03-19T08:23:37.179Z,11.85
2023-03-19T08:26:04.188Z,11.64
2023-03-19T08:28:31.124Z,11.72
2023-03-19T08:30:57.891Z,12.05
2023-03-19T08:33:24.915Z,12.30
2023-03-19T08:35:52.275Z,12.38
2023-03-19T08:38:20.061Z,12.38
2023-03-19T08:40:47.794Z,12.30
2023-03-19T08:43:14.684Z,11.68
2023-03-19T08:45:41.632Z,12.20
2023-03-19T08:48:08.393Z,12.54
2023-03-19T08:50:35.995Z,12.63
2023-03-19T08:53:02.993Z,12.69
2023-03-19T08:55:29.856Z,13.04
2023-03-19T08:57:56.571Z,13.09
2023-03-19T09:00:23.504Z,12.95
2023-03-19T09:02:50.441Z,13.20
2023-03-19T09:05:20.298Z,13.30
2023-03-19T09:07:47.278Z,12.22
2023-03-19T09:10:14.267Z,12.84
2023-03-19T09:12:41.000Z,12.75
2023-03-19T09:15:07.997Z,13.24
2023-03-19T09:17:35.815Z,13.68
2023-03-19T09:20:04.109Z,13.68
2023-03-19T09:22:31.284Z,13.52
2023-03-19T09:24:58.033Z,13.81
2023-03-19T09:27:25.086Z,14.21
2023-03-19T09:29:51.619Z,14.28
2023-03-19T09:32:18.402Z,14.33
2023-03-19T09:34:45.009Z,14.56
2023-03-19T09:37:11.833Z,15.01
2023-03-19T09:39:38.721Z,15.36
2023-03-19T09:42:20.732Z,16.01
2023-03-19T09:44:47.563Z,16.02
2023-03-19T09:47:31.690Z,16.31
2023-03-19T09:50:04.586Z,15.81
2023-03-19T09:52:45.756Z,15.80
2023-03-19T09:55:24.800Z,16.29
2023-03-19T09:57:56.914Z,16.59
2023-03-19T10:00:37.011Z,16.25
2023-03-19T10:03:34.894Z,16.37
2023-03-19T10:06:01.578Z,17.01
2023-03-19T10:08:36.283Z,17.36
2023-03-19T10:11:15.520Z,17.24
2023-03-19T10:14:10.652Z,17.45
2023-03-19T10:16:41.982Z,17.59
2023-03-19T10:19:13.929Z,17.56
2023-03-19T10:21:50.180Z,17.45
2023-03-19T10:24:39.587Z,17.98
2023-03-19T10:27:15.488Z,17.68
2023-03-19T10:29:43.328Z,17.60
2023-03-19T10:32:21.523Z,17.58
2023-03-19T10:34:51.098Z,17.62
2023-03-19T10:37:27.089Z,17.88
2023-03-19T10:39:59.533Z,18.02
2023-03-19T10:43:01.789Z,17.79
2023-03-19T10:45:35.451Z,17.94
2023-03-19T10:48:05.067Z,18.24
2023-03-19T10:50:59.811Z,18.77
2023-03-19T10:53:36.841Z,19.06
2023-03-19T10:56:23.091Z,19.02
2023-03-19T10:59:03.092Z,19.01
2023-03-19T11:01:34.450Z,19.17
2023-03-19T11:04:11.372Z,19.05
2023-03-19T11:06:39.152Z,19.53
2023-03-19T11:09:08.937Z,19.45
2023-03-19T11:11:42.512Z,19.49
2023-03-19T11:14:31.970Z,19.41
2023-03-19T11:17:26.102Z,19.74
2023-03-19T11:19:56.283Z,19.85
2023-03-19T11:22:33.648Z,19.91
2023-03-19T11:25:03.879Z,20.59
2023-03-19T11:27:35.584Z,20.78
2023-03-19T11:30:08.394Z,20.85
2023-03-19T11:32:37.431Z,20.59
2023-03-19T11:35:13.855Z,20.72
2023-03-19T11:37:55.812Z,20.58
2023-03-19T11:40:32.562Z,20.97
2023-03-19T11:43:30.625Z,20.80
2023-03-19T11:46:28.186Z,20.87
2023-03-19T11:49:30.497Z,20.84
2023-03-19T11:52:42.502Z,21.23
2023-03-19T11:55:19.722Z,21.17
2023-03-19T11:58:02.804Z,21.77
2023-03-19T12:00:35.481Z,21.84
2023-03-19T12:03:32.252Z,22.09
2023-03-19T12:06:19.505Z,21.89
2023-03-19T12:08:54.512Z,21.43
2023-03-19T12:11:31.445Z,22.10
2023-03-19T12:14:25.017Z,22.38
2023-03-19T12:17:17.206Z,22.64
2023-03-19T12:20:06.233Z,22.39
2023-03-19T12:23:10.530Z,22.92
2023-03-19T12:25:48.981Z,23.27
2023-03-19T12:28:41.490Z,23.07
2023-03-19T12:31:23.793Z,23.54
2023-03-19T12:33:59.590Z,23.73
2023-03-19T12:36:33.541Z,22.85
2023-03-19T12:39:11.134Z,23.22
2023-03-19T12:41:43.321Z,22.39
2023-03-19T12:44:26.522Z,22.13
2023-03-19T12:47:32.720Z,23.57
2023-03-19T12:50:09.670Z,23.71
2023-03-19T12:52:46.872Z,24.11
2023-03-19T12:55:22.833Z,24.12
2023-03-19T12:57:58.324Z,24.39
2023-03-19T13:00:35.955Z,24.55
2023-03-19T13:03:34.247Z,24.02
2023-03-19T13:06:23.306Z,24.04
2023-03-19T13:09:01.766Z,23.73
2023-03-19T13:12:05.259Z,24.61
2023-03-19T13:14:43.839Z,25.04
2023-03-19T13:17:28.689Z,25.39
2023-03-19T13:19:57.039Z,25.74
2023-03-19T13:22:31.728Z,25.24
2023-03-19T13:25:00.482Z,25.01
2023-03-19T13:27:29.906Z,24.81
2023-03-19T13:30:01.575Z,23.98
2023-03-19T13:32:50.270Z,24.14
2023-03-19T13:35:45.595Z,24.40
2023-03-19T13:38:25.342Z,24.58
2023-03-19T13:40:55.492Z,24.28
2023-03-19T13:43:29.944Z,24.85
2023-03-19T13:46:12.297Z,24.49
2023-03-19T13:48:51.567Z,25.39
2023-03-19T13:51:18.388Z,25.91
2023-03-19T13:54:00.618Z,25.85
2023-03-19T13:56:30.562Z,25.96
2023-03-19T13:59:15.892Z,25.79
2023-03-19T14:01:44.934Z,25.54
2023-03-19T14:04:20.645Z,25.75
2023-03-19T14:06:53.260Z,26.22
2023-03-19T14:09:34.930Z,26.30
2023-03-19T14:12:18.169Z,25.94
2023-03-19T14:15:02.418Z,26.16
2023-03-19T14:17:33.688Z,26.54
2023-03-19T14:20:36.976Z,26.29
2023-03-19T14:23:06.450Z,26.32
2023-03-19T14:26:07.430Z,26.36
2023-03-19T14:28:41.491Z,27.12
2023-03-19T14:31:18.193Z,27.02
2023-03-19T14:33:56.938Z,26.24
2023-03-19T14:36:25.013Z,26.32
2023-03-19T14:38:59.971Z,26.22
2023-03-19T14:41:32.579Z,26.43
2023-03-19T14:44:22.333Z,27.02
2023-03-19T14:47:26.704Z,26.44
2023-03-19T14:50:12.081Z,26.76
2023-03-19T14:53:14.908Z,26.18
2023-03-19T14:55:42.413Z,25.64
2023-03-19T14:58:12.617Z,25.38
2023-03-19T15:00:46.042Z,25.67
2023-03-19T15:03:37.194Z,25.44
2023-03-19T15:06:06.799Z,25.08
2023-03-19T15:08:37.333Z,24.81
2023-03-19T15:11:42.036Z,24.72
2023-03-19T15:14:30.854Z,24.71
2023-03-19T15:17:16.144Z,25.21
2023-03-19T15:19:43.284Z,25.11
2023-03-19T15:22:12.994Z,24.83
2023-03-19T15:24:40.013Z,24.67
2023-03-19T15:27:24.708Z,24.64
2023-03-19T15:29:53.593Z,24.87
2023-03-19T15:32:54.493Z,24.47
2023-03-19T15:35:32.065Z,24.20
2023-03-19T15:38:02.071Z,23.93
2023-03-19T15:40:31.738Z,23.56
2023-03-19T15:43:02.928Z,23.24
2023-03-19T15:45:35.589Z,23.16
2023-03-19T15:48:18.601Z,23.03
2023-03-19T15:50:48.211Z,22.88
2023-03-19T15:53:24.541Z,22.45
2023-03-19T15:55:54.600Z,22.46
2023-03-19T15:58:28.799Z,22.53
2023-03-19T16:00:56.468Z,22.32
2023-03-19T16:03:32.198Z,21.98
2023-03-19T16:06:02.681Z,22.27
2023-03-19T16:08:30.611Z,22.22
2023-03-19T16:11:28.364Z,22.07
2023-03-19T16:14:02.726Z,22.04
2023-03-19T16:16:32.716Z,22.33
2023-03-19T16:18:59.423Z,22.08
2023-03-19T16:21:34.110Z,21.83
2023-03-19T16:24:04.558Z,21.77
2023-03-19T16:26:39.484Z,21.68
2023-03-19T16:29:25.337Z,21.67
2023-03-19T16:31:53.636Z,21.62
2023-03-19T16:34:46.480Z,21.67
2023-03-19T16:37:41.808Z,21.57
2023-03-19T16:40:11.554Z,21.45
2023-03-19T16:42:43.354Z,21.16
2023-03-19T16:45:16.185Z,20.23
2023-03-19T16:47:54.400Z,20.01
2023-03-19T16:50:29.221Z,19.76
2023-03-19T16:53:01.417Z,19.47
2023-03-19T16:55:34.607Z,19.90
2023-03-19T16:58:14.388Z,19.90
2023-03-19T17:00:43.654Z,19.17
2023-03-19T17:03:17.245Z,19.11
2023-03-19T17:05:45.720Z,18.92
2023-03-19T17:08:13.562Z,18.81
2023-03-19T17:10:45.845Z,18.61
2023-03-19T17:13:22.536Z,18.75
2023-03-19T17:15:51.413Z,18.51
2023-03-19T17:18:24.268Z,18.34
2023-03-19T17:20:59.430Z,18.20
2023-03-19T17:23:29.167Z,18.12
2023-03-19T17:25:57.006Z,18.46
2023-03-19T17:28:24.408Z,18.23
2023-03-19T17:30:52.004Z,18.08
2023-03-19T17:33:27.709Z,17.80
2023-03-19T17:35:56.725Z,17.78
2023-03-19T17:38:32.072Z,17.73
2023-03-19T17:40:58.918Z,17.75
2023-03-19T17:43:25.814Z,17.43
2023-03-19T17:45:54.672Z,17.60
2023-03-19T17:48:22.951Z,17.49
2023-03-19T17:50:50.578Z,17.54
2023-03-19T17:53:18.645Z,17.31
2023-03-19T17:55:46.584Z,17.39
2023-03-19T17:58:18.738Z,17.54
2023-03-19T18:00:47.888Z,17.57
2023-03-19T18:03:17.554Z,17.71
2023-03-19T18:05:44.977Z,17.58
2023-03-19T18:08:17.737Z,17.71
2023-03-19T18:13:28.601Z,16.90
2023-03-19T18:15:55.601Z,16.63
2023-03-19T18:18:22.505Z,16.71
2023-03-19T18:20:49.612Z,16.94
2023-03-19T18:23:16.428Z,16.89
2023-03-19T18:25:46.166Z,16.87
2023-03-19T18:28:13.193Z,16.44
2023-03-19T18:30:40.946Z,16.63
2023-03-19T18:33:11.394Z,16.59
2023-03-19T18:35:39.987Z,16.57
2023-03-19T18:38:13.957Z,16.90
2023-03-19T18:40:40.790Z,17.26
2023-03-19T18:43:08.447Z,17.31
2023-03-19T18:45:35.296Z,17.15
2023-03-19T18:48:02.274Z,17.19
2023-03-19T18:50:29.605Z,16.84
2023-03-19T18:52:56.787Z,16.98
2023-03-19T18:55:26.876Z,16.93
2023-03-19T18:57:55.823Z,16.82
2023-03-19T19:00:27.257Z,17.10
2023-03-19T19:02:54.841Z,16.89
2023-03-19T19:05:23.762Z,16.63
2023-03-19T19:07:54.096Z,16.71
2023-03-19T19:10:20.974Z,16.80
2023-03-19T19:12:51.292Z,16.33
2023-03-19T19:15:24.644Z,16.71
2023-03-19T19:17:52.053Z,16.31
2023-03-19T19:20:20.739Z,16.44
2023-03-19T19:22:47.759Z,16.37
2023-03-19T19:25:22.476Z,15.89
2023-03-19T19:27:54.680Z,15.75
2023-03-19T19:30:21.972Z,15.87
2023-03-19T19:32:49.151Z,15.62
2023-03-19T19:35:26.153Z,15.69
2023-03-19T19:37:52.925Z,16.21
2023-03-19T19:40:21.168Z,16.28
2023-03-19T19:42:49.959Z,16.28
2023-03-19T19:45:36.817Z,16.28
2023-03-19T19:48:04.212Z,16.34
2023-03-19T19:50:31.094Z,16.27
2023-03-19T19:52:57.974Z,16.13
2023-03-19T19:55:26.006Z,16.05
2023-03-19T19:57:56.785Z,16.01
2023-03-19T20:00:26.197Z,16.03
2023-03-19T20:02:54.004Z,15.98
2023-03-19T20:05:28.805Z,15.85
2023-03-19T20:07:56.230Z,15.83
2023-03-19T20:10:24.265Z,15.85
2023-03-19T20:12:52.462Z,15.87
2023-03-19T20:15:21.617Z,15.85
2023-03-19T20:17:48.551Z,15.61
2023-03-19T20:20:16.576Z,15.74
2023-03-19T20:22:43.878Z,15.54
2023-03-19T20:25:11.062Z,15.84
2023-03-19T20:27:37.784Z,15.83
2023-03-19T20:30:06.465Z,15.74
2023-03-19T20:32:33.080Z,15.49
2023-03-19T20:35:03.300Z,15.50
2023-03-19T20:37:30.360Z,15.54
2023-03-19T20:39:58.321Z,15.46
2023-03-19T20:42:25.192Z,15.60
2023-03-19T20:44:54.808Z,15.66
2023-03-19T20:47:21.624Z,15.49
2023-03-19T20:49:48.363Z,15.65
2023-03-19T20:52:16.402Z,15.68
2023-03-19T20:54:43.155Z,15.41
2023-03-19T20:57:17.472Z,15.30
2023-03-19T20:59:46.938Z,15.38
2023-03-19T21:02:19.365Z,15.27
2023-03-19T21:04:47.605Z,15.29
2023-03-19T21:07:27.412Z,15.21
2023-03-19T21:09:54.425Z,15.28
2023-03-19T21:12:31.558Z,14.95
2023-03-19T21:14:59.125Z,14.58
2023-03-19T21:17:27.387Z,14.44
2023-03-19T21:19:54.837Z,14.34
2023-03-19T21:22:26.357Z,14.08
2023-03-19T21:24:55.264Z,13.90
2023-03-19T21:27:26.574Z,14.07
2023-03-19T21:29:53.795Z,13.62
2023-03-19T21:32:21.344Z,13.59
2023-03-19T21:34:49.055Z,13.43
2023-03-19T21:37:18.601Z,13.03
2023-03-19T21:39:46.327Z,12.55
2023-03-19T21:42:17.555Z,12.80
2023-03-19T21:44:47.995Z,12.66
2023-03-19T21:47:17.828Z,12.66
2023-03-19T21:49:44.660Z,13.02
2023-03-19T21:52:23.841Z,13.20
2023-03-19T21:54:50.727Z,12.79
2023-03-19T21:57:17.521Z,12.80
2023-03-19T21:59:45.250Z,12.90
2023-03-19T22:02:24.140Z,13.06
2023-03-19T22:04:50.775Z,13.26
2023-03-19T22:07:18.054Z,13.21
2023-03-19T22:09:45.404Z,13.37
2023-03-19T22:12:23.676Z,13.39
2023-03-19T22:14:50.513Z,13.38
2023-03-19T22:17:17.196Z,13.33
2023-03-19T22:19:44.004Z,13.42
2023-03-19T22:22:11.479Z,13.02
2023-03-19T22:24:38.277Z,12.75
2023-03-19T22:27:04.820Z,12.88
2023-03-19T22:29:31.993Z,13.01
2023-03-19T22:31:58.792Z,13.01
2023-03-19T22:34:27.611Z,13.07
2023-03-19T22:36:54.398Z,13.08
2023-03-19T22:39:21.217Z,13.04
2023-03-19T22:41:48.702Z,13.16
2023-03-19T22:44:35.898Z,12.92
2023-03-19T22:47:02.724Z,12.67
2023-03-19T22:49:29.873Z,12.84
2023-03-19T22:51:57.777Z,12.93
2023-03-19T22:54:24.491Z,12.78
2023-03-19T22:56:51.146Z,12.63
2023-03-19T22:59:17.846Z,12.80
2023-03-19T23:01:46.444Z,12.57
2023-03-19T23:04:19.526Z,12.48
2023-03-19T23:06:46.929Z,12.33
2023-03-19T23:09:18.240Z,12.45
2023-03-19T23:11:45.149Z,12.30
2023-03-19T23:14:26.069Z,12.37
2023-03-19T23:16:56.802Z,12.12
2023-03-19T23:19:25.985Z,11.95
2023-03-19T23:21:52.664Z,11.84
2023-03-19T23:24:19.845Z,12.01
2023-03-19T23:26:48.102Z,11.17
2023-03-19T23:29:19.738Z,11.08
2023-03-19T23:31:46.538Z,11.65
2023-03-19T23:34:15.048Z,12.11
2023-03-19T23:36:41.969Z,11.96
2023-03-19T23:39:09.438Z,12.02
2023-03-19T23:41:38.010Z,11.95
2023-03-19T23:44:06.170Z,11.90
2023-03-19T23:46:34.061Z,11.83
2023-03-19T23:49:01.826Z,10.06
2023-03-19T23:51:28.677Z,10.16
2023-03-19T23:53:55.411Z,10.74
2023-03-19T23:56:23.944Z,10.75
2023-03-19T23:58:51.503Z,10.96
